sensor_id;sensor_type;location;lat;lon;timestamp;P1;durP1;ratioP1;P2;durP2;ratioP2
4311;SDS011;77323;49.086;9.284;2024-03-17T00:00:38;6.85;;;5.72;;
4311;SDS011;77323;49.086;9.284;2024-03-17T00:01:39;4.40;;;4.00;;
4311;SDS011;77323;49.086;9.284;2024-03-17T00:02:41;6.10;;;5.63;;
4311;SDS011;77323;49.086;9.284;2024-03-17T00:03:43;5.03;;;4.55;;
4311;SDS011;77323;49.086;9.284;2024-03-17T00:04:44;4.60;;;4.20;;
4311;SDS011;77323;49.086;9.284;2024-03-17T00:05:45;5.57;;;4.57;;
4311;SDS011;77323;49.086;9.284;2024-03-17T00:06:46;5.60;;;4.77;;
4311;SDS011;77323;49.086;9.284;2024-03-17T00:07:47;8.30;;;4.78;;
4311;SDS011;77323;49.086;9.284;2024-03-17T00:08:48;5.20;;;4.80;;
4311;SDS011;77323;49.086;9.284;2024-03-17T00:09:50;5.45;;;4.93;;
4311;SDS011;77323;49.086;9.284;2024-03-17T00:10:52;6.63;;;4.38;;
4311;SDS011;77323;49.086;9.284;2024-03-17T00:11:56;5.50;;;5.10;;
4311;SDS011;77323;49.086;9.284;2024-03-17T00:12:56;8.53;;;5.57;;
4311;SDS011;77323;49.086;9.284;2024-03-17T00:13:58;5.13;;;4.63;;
4311;SDS011;77323;49.086;9.284;2024-03-17T00:14:59;5.47;;;4.70;;
4311;SDS011;77323;49.086;9.284;2024-03-17T00:15:59;21.90;;;5.40;;
4311;SDS011;77323;49.086;9.284;2024-03-17T00:17:02;13.00;;;4.97;;
4311;SDS011;77323;49.086;9.284;2024-03-17T00:18:03;4.88;;;4.43;;
4311;SDS011;77323;49.086;9.284;2024-03-17T00:19:04;7.83;;;4.00;;
4311;SDS011;77323;49.086;9.284;2024-03-17T00:20:05;4.45;;;4.05;;
4311;SDS011;77323;49.086;9.284;2024-03-17T00:21:09;6.35;;;4.65;;
4311;SDS011;77323;49.086;9.284;2024-03-17T00:22:10;7.63;;;4.30;;
4311;SDS011;77323;49.086;9.284;2024-03-17T00:23:13;5.70;;;4.60;;
4311;SDS011;77323;49.086;9.284;2024-03-17T00:24:14;5.50;;;4.60;;
4311;SDS011;77323;49.086;9.284;2024-03-17T00:25:14;4.00;;;3.70;;
4311;SDS011;77323;49.086;9.284;2024-03-17T00:26:17;5.28;;;4.78;;
4311;SDS011;77323;49.086;9.284;2024-03-17T00:27:19;4.75;;;4.30;;
4311;SDS011;77323;49.086;9.284;2024-03-17T00:28:19;4.97;;;3.93;;
4311;SDS011;77323;49.086;9.284;2024-03-17T00:29:20;4.90;;;4.57;;
4311;SDS011;77323;49.086;9.284;2024-03-17T00:30:22;5.60;;;4.10;;
4311;SDS011;77323;49.086;9.284;2024-03-17T00:31:23;4.37;;;4.07;;
4311;SDS011;77323;49.086;9.284;2024-03-17T00:32:24;3.10;;;2.93;;
4311;SDS011;77323;49.086;9.284;2024-03-17T00:33:25;8.30;;;4.10;;
4311;SDS011;77323;49.086;9.284;2024-03-17T00:34:26;4.03;;;3.70;;
4311;SDS011;77323;49.086;9.284;2024-03-17T00:35:27;4.90;;;4.27;;
4311;SDS011;77323;49.086;9.284;2024-03-17T00:36:27;4.57;;;3.70;;
4311;SDS011;77323;49.086;9.284;2024-03-17T00:37:29;6.43;;;4.13;;
4311;SDS011;77323;49.086;9.284;2024-03-17T00:38:30;4.57;;;4.20;;
4311;SDS011;77323;49.086;9.284;2024-03-17T00:39:31;6.20;;;4.23;;
4311;SDS011;77323;49.086;9.284;2024-03-17T00:40:32;5.65;;;5.05;;
4311;SDS011;77323;49.086;9.284;2024-03-17T00:41:34;6.25;;;4.57;;
4311;SDS011;77323;49.086;9.284;2024-03-17T00:42:34;6.63;;;3.13;;
4311;SDS011;77323;49.086;9.284;2024-03-17T00:43:35;4.77;;;3.80;;
4311;SDS011;77323;49.086;9.284;2024-03-17T00:44:37;4.07;;;3.78;;
4311;SDS011;77323;49.086;9.284;2024-03-17T00:45:37;3.40;;;3.20;;
4311;SDS011;77323;49.086;9.284;2024-03-17T00:46:38;3.30;;;3.20;;
4311;SDS011;77323;49.086;9.284;2024-03-17T00:47:42;3.58;;;3.28;;
4311;SDS011;77323;49.086;9.284;2024-03-17T00:48:46;5.47;;;3.75;;
4311;SDS011;77323;49.086;9.284;2024-03-17T00:49:50;5.32;;;4.68;;
4311;SDS011;77323;49.086;9.284;2024-03-17T00:50:57;3.65;;;3.38;;
4311;SDS011;77323;49.086;9.284;2024-03-17T00:51:58;7.63;;;4.70;;
4311;SDS011;77323;49.086;9.284;2024-03-17T00:52:59;4.23;;;3.57;;
4311;SDS011;77323;49.086;9.284;2024-03-17T00:54:01;5.15;;;4.65;;
4311;SDS011;77323;49.086;9.284;2024-03-17T00:55:03;5.03;;;4.15;;
4311;SDS011;77323;49.086;9.284;2024-03-17T00:56:04;4.15;;;3.80;;
4311;SDS011;77323;49.086;9.284;2024-03-17T00:57:05;10.07;;;4.90;;
4311;SDS011;77323;49.086;9.284;2024-03-17T00:58:05;4.87;;;4.40;;
4311;SDS011;77323;49.086;9.284;2024-03-17T00:59:07;8.18;;;3.50;;
4311;SDS011;77323;49.086;9.284;2024-03-17T01:00:08;4.73;;;3.80;;
4311;SDS011;77323;49.086;9.284;2024-03-17T01:01:10;6.13;;;3.88;;
4311;SDS011;77323;49.086;9.284;2024-03-17T01:02:12;5.20;;;4.45;;
4311;SDS011;77323;49.086;9.284;2024-03-17T01:03:13;5.93;;;5.10;;
4311;SDS011;77323;49.086;9.284;2024-03-17T01:04:14;5.55;;;4.53;;
4311;SDS011;77323;49.086;9.284;2024-03-17T01:05:15;6.67;;;5.13;;
4311;SDS011;77323;49.086;9.284;2024-03-17T01:06:16;11.30;;;5.00;;
4311;SDS011;77323;49.086;9.284;2024-03-17T01:07:17;3.97;;;3.77;;
4311;SDS011;77323;49.086;9.284;2024-03-17T01:08:18;4.60;;;4.10;;
4311;SDS011;77323;49.086;9.284;2024-03-17T01:09:19;7.20;;;4.45;;
4311;SDS011;77323;49.086;9.284;2024-03-17T01:10:21;4.18;;;3.75;;
4311;SDS011;77323;49.086;9.284;2024-03-17T01:11:21;3.70;;;3.03;;
4311;SDS011;77323;49.086;9.284;2024-03-17T01:12:22;8.13;;;4.73;;
4311;SDS011;77323;49.086;9.284;2024-03-17T01:13:24;4.82;;;4.35;;
4311;SDS011;77323;49.086;9.284;2024-03-17T01:14:24;2.97;;;2.80;;
4311;SDS011;77323;49.086;9.284;2024-03-17T01:15:25;4.50;;;4.10;;
4311;SDS011;77323;49.086;9.284;2024-03-17T01:16:26;4.65;;;4.30;;
4311;SDS011;77323;49.086;9.284;2024-03-17T01:17:27;6.03;;;4.20;;
4311;SDS011;77323;49.086;9.284;2024-03-17T01:18:29;7.18;;;4.40;;
4311;SDS011;77323;49.086;9.284;2024-03-17T01:19:30;5.73;;;4.97;;
4311;SDS011;77323;49.086;9.284;2024-03-17T01:20:32;5.88;;;5.32;;
4311;SDS011;77323;49.086;9.284;2024-03-17T01:21:35;3.28;;;3.08;;
4311;SDS011;77323;49.086;9.284;2024-03-17T01:22:36;5.07;;;4.20;;
4311;SDS011;77323;49.086;9.284;2024-03-17T01:23:36;7.67;;;6.23;;
4311;SDS011;77323;49.086;9.284;2024-03-17T01:24:38;5.43;;;4.95;;
4311;SDS011;77323;49.086;9.284;2024-03-17T01:25:45;6.10;;;4.70;;
4311;SDS011;77323;49.086;9.284;2024-03-17T01:26:46;6.63;;;4.93;;
4311;SDS011;77323;49.086;9.284;2024-03-17T01:27:48;7.53;;;5.80;;
4311;SDS011;77323;49.086;9.284;2024-03-17T01:28:49;3.77;;;3.37;;
4311;SDS011;77323;49.086;9.284;2024-03-17T01:29:49;6.77;;;5.57;;
4311;SDS011;77323;49.086;9.284;2024-03-17T01:30:50;21.63;;;4.93;;
4311;SDS011;77323;49.086;9.284;2024-03-17T01:31:51;7.75;;;4.40;;
4311;SDS011;77323;49.086;9.284;2024-03-17T01:32:52;7.63;;;4.20;;
4311;SDS011;77323;49.086;9.284;2024-03-17T01:33:53;3.63;;;3.33;;
4311;SDS011;77323;49.086;9.284;2024-03-17T01:34:54;5.18;;;4.60;;
4311;SDS011;77323;49.086;9.284;2024-03-17T01:35:55;4.37;;;3.97;;
4311;SDS011;77323;49.086;9.284;2024-03-17T01:36:56;7.20;;;4.13;;
4311;SDS011;77323;49.086;9.284;2024-03-17T01:37:57;5.25;;;4.85;;
4311;SDS011;77323;49.086;9.284;2024-03-17T01:38:59;3.93;;;3.73;;
4311;SDS011;77323;49.086;9.284;2024-03-17T01:40:00;5.25;;;4.75;;
4311;SDS011;77323;49.086;9.284;2024-03-17T01:41:00;5.30;;;4.27;;
4311;SDS011;77323;49.086;9.284;2024-03-17T01:42:03;5.90;;;4.70;;
4311;SDS011;77323;49.086;9.284;2024-03-17T01:43:04;7.53;;;3.93;;
4311;SDS011;77323;49.086;9.284;2024-03-17T01:44:04;4.43;;;3.97;;
4311;SDS011;77323;49.086;9.284;2024-03-17T01:46:26;3.78;;;3.45;;
4311;SDS011;77323;49.086;9.284;2024-03-17T01:47:27;2.90;;;2.67;;
4311;SDS011;77323;49.086;9.284;2024-03-17T01:48:29;4.05;;;3.65;;
4311;SDS011;77323;49.086;9.284;2024-03-17T01:49:29;4.50;;;4.10;;
4311;SDS011;77323;49.086;9.284;2024-03-17T01:50:37;4.23;;;3.83;;
4311;SDS011;77323;49.086;9.284;2024-03-17T01:51:38;4.40;;;3.30;;
4311;SDS011;77323;49.086;9.284;2024-03-17T01:52:39;4.03;;;3.80;;
4311;SDS011;77323;49.086;9.284;2024-03-17T01:53:40;5.13;;;4.63;;
4311;SDS011;77323;49.086;9.284;2024-03-17T01:54:43;9.90;;;3.33;;
4311;SDS011;77323;49.086;9.284;2024-03-17T01:55:46;4.07;;;3.70;;
4311;SDS011;77323;49.086;9.284;2024-03-17T01:56:47;6.40;;;4.75;;
4311;SDS011;77323;49.086;9.284;2024-03-17T01:57:51;4.27;;;3.63;;
4311;SDS011;77323;49.086;9.284;2024-03-17T01:58:52;4.15;;;3.75;;
4311;SDS011;77323;49.086;9.284;2024-03-17T01:59:55;5.07;;;4.43;;
4311;SDS011;77323;49.086;9.284;2024-03-17T02:00:58;5.35;;;4.85;;
4311;SDS011;77323;49.086;9.284;2024-03-17T02:01:59;4.10;;;3.80;;
4311;SDS011;77323;49.086;9.284;2024-03-17T02:03:00;4.63;;;4.05;;
4311;SDS011;77323;49.086;9.284;2024-03-17T02:04:02;5.32;;;3.65;;
4311;SDS011;77323;49.086;9.284;2024-03-17T02:05:06;5.25;;;4.05;;
4311;SDS011;77323;49.086;9.284;2024-03-17T02:06:07;4.47;;;4.07;;
4311;SDS011;77323;49.086;9.284;2024-03-17T02:07:09;3.90;;;3.50;;
4311;SDS011;77323;49.086;9.284;2024-03-17T02:08:11;4.63;;;3.13;;
4311;SDS011;77323;49.086;9.284;2024-03-17T02:09:11;5.53;;;5.03;;
4311;SDS011;77323;49.086;9.284;2024-03-17T02:10:12;5.78;;;3.35;;
4311;SDS011;77323;49.086;9.284;2024-03-17T02:11:23;3.85;;;3.53;;
4311;SDS011;77323;49.086;9.284;2024-03-17T02:12:29;6.20;;;4.75;;
4311;SDS011;77323;49.086;9.284;2024-03-17T02:13:31;6.18;;;5.10;;
4311;SDS011;77323;49.086;9.284;2024-03-17T02:14:32;5.20;;;4.32;;
4311;SDS011;77323;49.086;9.284;2024-03-17T02:15:33;4.85;;;4.45;;
4311;SDS011;77323;49.086;9.284;2024-03-17T02:16:34;4.23;;;3.90;;
4311;SDS011;77323;49.086;9.284;2024-03-17T02:17:35;3.87;;;3.57;;
4311;SDS011;77323;49.086;9.284;2024-03-17T02:18:35;4.47;;;4.20;;
4311;SDS011;77323;49.086;9.284;2024-03-17T02:19:37;8.43;;;3.83;;
4311;SDS011;77323;49.086;9.284;2024-03-17T02:20:38;5.63;;;4.00;;
4311;SDS011;77323;49.086;9.284;2024-03-17T02:21:59;6.28;;;4.78;;
4311;SDS011;77323;49.086;9.284;2024-03-17T02:22:59;8.73;;;4.23;;
4311;SDS011;77323;49.086;9.284;2024-03-17T02:24:01;4.18;;;3.25;;
4311;SDS011;77323;49.086;9.284;2024-03-17T02:25:02;6.23;;;4.83;;
4311;SDS011;77323;49.086;9.284;2024-03-17T02:26:03;3.80;;;3.15;;
4311;SDS011;77323;49.086;9.284;2024-03-17T02:27:04;3.75;;;3.45;;
4311;SDS011;77323;49.086;9.284;2024-03-17T02:28:05;15.33;;;4.70;;
4311;SDS011;77323;49.086;9.284;2024-03-17T02:29:06;4.47;;;4.07;;
4311;SDS011;77323;49.086;9.284;2024-03-17T02:30:07;4.70;;;4.22;;
4311;SDS011;77323;49.086;9.284;2024-03-17T02:31:09;6.38;;;4.90;;
4311;SDS011;77323;49.086;9.284;2024-03-17T02:32:10;4.05;;;3.40;;
4311;SDS011;77323;49.086;9.284;2024-03-17T02:33:12;7.10;;;4.90;;
4311;SDS011;77323;49.086;9.284;2024-03-17T02:34:13;4.85;;;4.00;;
4311;SDS011;77323;49.086;9.284;2024-03-17T02:35:14;4.43;;;3.87;;
4311;SDS011;77323;49.086;9.284;2024-03-17T02:36:15;5.03;;;4.43;;
4311;SDS011;77323;49.086;9.284;2024-03-17T02:37:17;12.88;;;4.07;;
4311;SDS011;77323;49.086;9.284;2024-03-17T02:38:18;4.60;;;3.83;;
4311;SDS011;77323;49.086;9.284;2024-03-17T02:39:39;4.43;;;4.00;;
4311;SDS011;77323;49.086;9.284;2024-03-17T02:40:39;4.47;;;4.10;;
4311;SDS011;77323;49.086;9.284;2024-03-17T02:41:43;5.63;;;3.70;;
4311;SDS011;77323;49.086;9.284;2024-03-17T02:42:45;7.28;;;4.90;;
4311;SDS011;77323;49.086;9.284;2024-03-17T02:43:46;4.73;;;4.17;;
4311;SDS011;77323;49.086;9.284;2024-03-17T02:44:47;12.57;;;3.63;;
4311;SDS011;77323;49.086;9.284;2024-03-17T02:45:49;3.22;;;3.03;;
4311;SDS011;77323;49.086;9.284;2024-03-17T02:46:49;4.70;;;3.70;;
4311;SDS011;77323;49.086;9.284;2024-03-17T02:47:50;9.20;;;3.67;;
4311;SDS011;77323;49.086;9.284;2024-03-17T02:48:52;3.60;;;3.30;;
4311;SDS011;77323;49.086;9.284;2024-03-17T02:49:53;4.43;;;4.03;;
4311;SDS011;77323;49.086;9.284;2024-03-17T02:50:55;3.33;;;3.03;;
4311;SDS011;77323;49.086;9.284;2024-03-17T02:51:56;20.33;;;3.63;;
4311;SDS011;77323;49.086;9.284;2024-03-17T02:52:57;2.97;;;2.80;;
4311;SDS011;77323;49.086;9.284;2024-03-17T02:53:58;4.30;;;3.50;;
4311;SDS011;77323;49.086;9.284;2024-03-17T02:55:00;4.32;;;3.85;;
4311;SDS011;77323;49.086;9.284;2024-03-17T02:56:01;4.07;;;3.77;;
4311;SDS011;77323;49.086;9.284;2024-03-17T02:57:02;5.30;;;3.10;;
4311;SDS011;77323;49.086;9.284;2024-03-17T02:58:04;8.93;;;3.75;;
4311;SDS011;77323;49.086;9.284;2024-03-17T02:59:06;4.45;;;2.45;;
4311;SDS011;77323;49.086;9.284;2024-03-17T03:00:07;3.63;;;3.37;;
4311;SDS011;77323;49.086;9.284;2024-03-17T03:01:13;3.45;;;2.83;;
4311;SDS011;77323;49.086;9.284;2024-03-17T03:02:15;5.28;;;3.85;;
4311;SDS011;77323;49.086;9.284;2024-03-17T03:03:16;3.42;;;3.13;;
4311;SDS011;77323;49.086;9.284;2024-03-17T03:04:17;3.23;;;2.93;;
4311;SDS011;77323;49.086;9.284;2024-03-17T03:05:17;5.30;;;3.90;;
4311;SDS011;77323;49.086;9.284;2024-03-17T03:06:19;4.35;;;3.95;;
4311;SDS011;77323;49.086;9.284;2024-03-17T03:07:20;4.83;;;3.60;;
4311;SDS011;77323;49.086;9.284;2024-03-17T03:08:21;3.58;;;3.30;;
4311;SDS011;77323;49.086;9.284;2024-03-17T03:09:22;4.07;;;3.38;;
4311;SDS011;77323;49.086;9.284;2024-03-17T03:10:31;5.32;;;2.58;;
4311;SDS011;77323;49.086;9.284;2024-03-17T03:11:32;2.30;;;2.10;;
4311;SDS011;77323;49.086;9.284;2024-03-17T03:12:32;2.40;;;2.30;;
4311;SDS011;77323;49.086;9.284;2024-03-17T03:13:34;4.22;;;3.28;;
4311;SDS011;77323;49.086;9.284;2024-03-17T03:14:35;1.95;;;1.83;;
4311;SDS011;77323;49.086;9.284;2024-03-17T03:15:38;4.35;;;3.22;;
4311;SDS011;77323;49.086;9.284;2024-03-17T03:16:39;4.17;;;3.47;;
4311;SDS011;77323;49.086;9.284;2024-03-17T03:17:40;2.67;;;2.45;;
4311;SDS011;77323;49.086;9.284;2024-03-17T03:18:42;2.45;;;2.35;;
4311;SDS011;77323;49.086;9.284;2024-03-17T03:19:44;2.70;;;2.60;;
4311;SDS011;77323;49.086;9.284;2024-03-17T03:20:50;2.53;;;2.13;;
4311;SDS011;77323;49.086;9.284;2024-03-17T03:21:52;3.28;;;3.00;;
4311;SDS011;77323;49.086;9.284;2024-03-17T03:22:53;2.15;;;2.05;;
4311;SDS011;77323;49.086;9.284;2024-03-17T03:23:54;5.63;;;3.03;;
4311;SDS011;77323;49.086;9.284;2024-03-17T03:24:55;4.70;;;3.10;;
4311;SDS011;77323;49.086;9.284;2024-03-17T03:25:57;4.38;;;3.28;;
4311;SDS011;77323;49.086;9.284;2024-03-17T03:26:58;2.75;;;2.35;;
4311;SDS011;77323;49.086;9.284;2024-03-17T03:27:59;3.63;;;3.35;;
4311;SDS011;77323;49.086;9.284;2024-03-17T03:29:01;3.00;;;2.80;;
4311;SDS011;77323;49.086;9.284;2024-03-17T03:30:04;3.35;;;3.03;;
4311;SDS011;77323;49.086;9.284;2024-03-17T03:31:11;2.67;;;2.47;;
4311;SDS011;77323;49.086;9.284;2024-03-17T03:32:13;4.78;;;2.28;;
4311;SDS011;77323;49.086;9.284;2024-03-17T03:33:15;5.10;;;2.47;;
4311;SDS011;77323;49.086;9.284;2024-03-17T03:34:15;1.93;;;1.83;;
4311;SDS011;77323;49.086;9.284;2024-03-17T03:35:17;2.92;;;2.72;;
4311;SDS011;77323;49.086;9.284;2024-03-17T03:36:18;5.07;;;2.63;;
4311;SDS011;77323;49.086;9.284;2024-03-17T03:37:21;2.38;;;2.28;;
4311;SDS011;77323;49.086;9.284;2024-03-17T03:38:22;4.85;;;1.65;;
4311;SDS011;77323;49.086;9.284;2024-03-17T03:39:25;1.85;;;1.77;;
4311;SDS011;77323;49.086;9.284;2024-03-17T03:40:28;2.78;;;2.58;;
4311;SDS011;77323;49.086;9.284;2024-03-17T03:41:30;5.80;;;2.17;;
4311;SDS011;77323;49.086;9.284;2024-03-17T03:42:31;10.57;;;2.33;;
4311;SDS011;77323;49.086;9.284;2024-03-17T03:43:33;2.13;;;2.03;;
4311;SDS011;77323;49.086;9.284;2024-03-17T03:44:33;2.73;;;1.30;;
4311;SDS011;77323;49.086;9.284;2024-03-17T03:45:35;2.03;;;2.00;;
4311;SDS011;77323;49.086;9.284;2024-03-17T03:46:37;3.53;;;1.52;;
4311;SDS011;77323;49.086;9.284;2024-03-17T03:47:42;1.27;;;1.25;;
4311;SDS011;77323;49.086;9.284;2024-03-17T03:48:43;2.00;;;1.63;;
4311;SDS011;77323;49.086;9.284;2024-03-17T03:49:43;1.80;;;1.70;;
4311;SDS011;77323;49.086;9.284;2024-03-17T03:50:45;2.85;;;2.63;;
4311;SDS011;77323;49.086;9.284;2024-03-17T03:51:46;4.10;;;2.20;;
4311;SDS011;77323;49.086;9.284;2024-03-17T03:52:47;6.88;;;2.22;;
4311;SDS011;77323;49.086;9.284;2024-03-17T03:53:48;2.03;;;1.30;;
4311;SDS011;77323;49.086;9.284;2024-03-17T03:54:52;2.28;;;2.17;;
4311;SDS011;77323;49.086;9.284;2024-03-17T03:55:52;1.87;;;1.70;;
4311;SDS011;77323;49.086;9.284;2024-03-17T03:56:53;2.73;;;2.13;;
4311;SDS011;77323;49.086;9.284;2024-03-17T03:57:55;2.22;;;2.05;;
4311;SDS011;77323;49.086;9.284;2024-03-17T03:58:55;2.40;;;2.30;;
4311;SDS011;77323;49.086;9.284;2024-03-17T03:59:57;1.60;;;1.42;;
4311;SDS011;77323;49.086;9.284;2024-03-17T04:00:59;1.85;;;1.75;;
4311;SDS011;77323;49.086;9.284;2024-03-17T04:02:01;10.77;;;2.10;;
4311;SDS011;77323;49.086;9.284;2024-03-17T04:03:03;1.52;;;1.45;;
4311;SDS011;77323;49.086;9.284;2024-03-17T04:04:03;2.30;;;2.20;;
4311;SDS011;77323;49.086;9.284;2024-03-17T04:05:05;1.75;;;1.65;;
4311;SDS011;77323;49.086;9.284;2024-03-17T04:06:07;1.98;;;1.38;;
4311;SDS011;77323;49.086;9.284;2024-03-17T04:07:10;1.55;;;1.40;;
4311;SDS011;77323;49.086;9.284;2024-03-17T04:08:12;1.27;;;1.27;;
4311;SDS011;77323;49.086;9.284;2024-03-17T04:09:13;3.50;;;1.87;;
4311;SDS011;77323;49.086;9.284;2024-03-17T04:10:14;2.03;;;1.90;;
4311;SDS011;77323;49.086;9.284;2024-03-17T04:11:18;1.40;;;1.33;;
4311;SDS011;77323;49.086;9.284;2024-03-17T04:12:20;1.80;;;1.70;;
4311;SDS011;77323;49.086;9.284;2024-03-17T04:13:20;2.20;;;2.10;;
4311;SDS011;77323;49.086;9.284;2024-03-17T04:14:21;1.47;;;1.20;;
4311;SDS011;77323;49.086;9.284;2024-03-17T04:15:23;1.83;;;1.67;;
4311;SDS011;77323;49.086;9.284;2024-03-17T04:16:24;1.70;;;1.60;;
4311;SDS011;77323;49.086;9.284;2024-03-17T04:17:26;1.60;;;1.50;;
4311;SDS011;77323;49.086;9.284;2024-03-17T04:18:27;2.50;;;2.40;;
4311;SDS011;77323;49.086;9.284;2024-03-17T04:19:30;10.85;;;1.52;;
4311;SDS011;77323;49.086;9.284;2024-03-17T04:20:31;1.80;;;1.70;;
4311;SDS011;77323;49.086;9.284;2024-03-17T04:21:32;2.13;;;2.03;;
4311;SDS011;77323;49.086;9.284;2024-03-17T04:22:34;1.63;;;1.52;;
4311;SDS011;77323;49.086;9.284;2024-03-17T04:23:35;5.68;;;2.08;;
4311;SDS011;77323;49.086;9.284;2024-03-17T04:24:37;1.52;;;1.30;;
4311;SDS011;77323;49.086;9.284;2024-03-17T04:25:39;2.23;;;2.13;;
4311;SDS011;77323;49.086;9.284;2024-03-17T04:26:41;2.80;;;2.60;;
4311;SDS011;77323;49.086;9.284;2024-03-17T04:27:43;1.77;;;1.63;;
4311;SDS011;77323;49.086;9.284;2024-03-17T04:28:44;3.23;;;1.57;;
4311;SDS011;77323;49.086;9.284;2024-03-17T04:29:52;1.50;;;1.40;;
4311;SDS011;77323;49.086;9.284;2024-03-17T04:31:01;1.95;;;1.85;;
4311;SDS011;77323;49.086;9.284;2024-03-17T04:32:06;3.10;;;2.85;;
4311;SDS011;77323;49.086;9.284;2024-03-17T04:33:07;5.67;;;2.40;;
4311;SDS011;77323;49.086;9.284;2024-03-17T04:34:08;2.75;;;2.33;;
4311;SDS011;77323;49.086;9.284;2024-03-17T04:35:09;2.93;;;1.57;;
4311;SDS011;77323;49.086;9.284;2024-03-17T04:36:11;3.05;;;2.35;;
4311;SDS011;77323;49.086;9.284;2024-03-17T04:37:11;2.00;;;1.90;;
4311;SDS011;77323;49.086;9.284;2024-03-17T04:38:12;3.00;;;2.73;;
4311;SDS011;77323;49.086;9.284;2024-03-17T04:39:14;2.88;;;1.83;;
4311;SDS011;77323;49.086;9.284;2024-03-17T04:40:15;2.23;;;2.13;;
4311;SDS011;77323;49.086;9.284;2024-03-17T04:41:23;3.55;;;2.20;;
4311;SDS011;77323;49.086;9.284;2024-03-17T04:42:24;1.90;;;1.80;;
4311;SDS011;77323;49.086;9.284;2024-03-17T04:43:25;2.53;;;2.42;;
4311;SDS011;77323;49.086;9.284;2024-03-17T04:44:26;2.33;;;2.22;;
4311;SDS011;77323;49.086;9.284;2024-03-17T04:45:29;1.60;;;1.50;;
4311;SDS011;77323;49.086;9.284;2024-03-17T04:46:30;10.10;;;2.67;;
4311;SDS011;77323;49.086;9.284;2024-03-17T04:47:30;6.47;;;2.83;;
4311;SDS011;77323;49.086;9.284;2024-03-17T04:48:32;5.63;;;2.22;;
4311;SDS011;77323;49.086;9.284;2024-03-17T04:49:36;1.87;;;1.73;;
4311;SDS011;77323;49.086;9.284;2024-03-17T04:50:38;3.35;;;1.95;;
4311;SDS011;77323;49.086;9.284;2024-03-17T04:51:39;5.93;;;3.90;;
4311;SDS011;77323;49.086;9.284;2024-03-17T04:52:41;3.45;;;2.67;;
4311;SDS011;77323;49.086;9.284;2024-03-17T04:53:41;2.83;;;2.57;;
4311;SDS011;77323;49.086;9.284;2024-03-17T04:54:43;4.82;;;1.58;;
4311;SDS011;77323;49.086;9.284;2024-03-17T04:55:43;1.23;;;1.13;;
4311;SDS011;77323;49.086;9.284;2024-03-17T04:56:45;1.27;;;1.27;;
4311;SDS011;77323;49.086;9.284;2024-03-17T04:57:47;2.08;;;1.98;;
4311;SDS011;77323;49.086;9.284;2024-03-17T04:58:48;1.70;;;1.30;;
4311;SDS011;77323;49.086;9.284;2024-03-17T04:59:49;1.00;;;1.00;;
4311;SDS011;77323;49.086;9.284;2024-03-17T05:00:50;1.65;;;1.27;;
4311;SDS011;77323;49.086;9.284;2024-03-17T05:01:51;1.53;;;1.43;;
4311;SDS011;77323;49.086;9.284;2024-03-17T05:02:54;3.20;;;1.83;;
4311;SDS011;77323;49.086;9.284;2024-03-17T05:03:54;4.00;;;1.40;;
4311;SDS011;77323;49.086;9.284;2024-03-17T05:04:56;1.00;;;1.00;;
4311;SDS011;77323;49.086;9.284;2024-03-17T05:06:00;1.33;;;1.23;;
4311;SDS011;77323;49.086;9.284;2024-03-17T05:07:05;1.10;;;1.10;;
4311;SDS011;77323;49.086;9.284;2024-03-17T05:08:05;4.40;;;1.47;;
4311;SDS011;77323;49.086;9.284;2024-03-17T05:09:07;1.15;;;1.15;;
4311;SDS011;77323;49.086;9.284;2024-03-17T05:10:08;1.70;;;1.63;;
4311;SDS011;77323;49.086;9.284;2024-03-17T05:11:10;1.67;;;1.27;;
4311;SDS011;77323;49.086;9.284;2024-03-17T05:12:11;1.25;;;1.25;;
4311;SDS011;77323;49.086;9.284;2024-03-17T05:13:13;1.33;;;1.23;;
4311;SDS011;77323;49.086;9.284;2024-03-17T05:14:14;1.43;;;1.33;;
4311;SDS011;77323;49.086;9.284;2024-03-17T05:15:15;2.67;;;1.15;;
4311;SDS011;77323;49.086;9.284;2024-03-17T05:16:16;7.27;;;1.70;;
4311;SDS011;77323;49.086;9.284;2024-03-17T05:17:18;1.20;;;1.20;;
4311;SDS011;77323;49.086;9.284;2024-03-17T05:18:19;2.10;;;1.47;;
4311;SDS011;77323;49.086;9.284;2024-03-17T05:19:20;1.00;;;1.00;;
4311;SDS011;77323;49.086;9.284;2024-03-17T05:20:21;1.73;;;1.63;;
4311;SDS011;77323;49.086;9.284;2024-03-17T05:21:22;2.20;;;2.10;;
4311;SDS011;77323;49.086;9.284;2024-03-17T05:22:23;1.95;;;1.85;;
4311;SDS011;77323;49.086;9.284;2024-03-17T05:23:28;1.10;;;1.10;;
4311;SDS011;77323;49.086;9.284;2024-03-17T05:24:30;1.98;;;1.65;;
4311;SDS011;77323;49.086;9.284;2024-03-17T05:25:31;1.80;;;1.42;;
4311;SDS011;77323;49.086;9.284;2024-03-17T05:26:36;1.98;;;1.88;;
4311;SDS011;77323;49.086;9.284;2024-03-17T05:27:38;2.03;;;1.52;;
4311;SDS011;77323;49.086;9.284;2024-03-17T05:28:38;1.07;;;1.07;;
4311;SDS011;77323;49.086;9.284;2024-03-17T05:29:39;1.23;;;1.10;;
4311;SDS011;77323;49.086;9.284;2024-03-17T05:30:41;1.55;;;1.45;;
4311;SDS011;77323;49.086;9.284;2024-03-17T05:31:42;2.05;;;1.95;;
4311;SDS011;77323;49.086;9.284;2024-03-17T05:32:44;1.70;;;1.60;;
4311;SDS011;77323;49.086;9.284;2024-03-17T05:33:44;1.53;;;1.43;;
4311;SDS011;77323;49.086;9.284;2024-03-17T05:34:45;2.10;;;1.33;;
4311;SDS011;77323;49.086;9.284;2024-03-17T05:36:53;2.05;;;1.95;;
4311;SDS011;77323;49.086;9.284;2024-03-17T05:37:55;1.70;;;1.60;;
4311;SDS011;77323;49.086;9.284;2024-03-17T05:38:56;1.88;;;1.77;;
4311;SDS011;77323;49.086;9.284;2024-03-17T05:39:58;2.45;;;1.27;;
4311;SDS011;77323;49.086;9.284;2024-03-17T05:40:59;1.60;;;1.50;;
4311;SDS011;77323;49.086;9.284;2024-03-17T05:42:02;1.58;;;1.48;;
4311;SDS011;77323;49.086;9.284;2024-03-17T05:43:03;1.95;;;1.85;;
4311;SDS011;77323;49.086;9.284;2024-03-17T05:44:04;4.50;;;1.77;;
4311;SDS011;77323;49.086;9.284;2024-03-17T05:45:06;1.33;;;1.33;;
4311;SDS011;77323;49.086;9.284;2024-03-17T05:46:11;1.73;;;1.52;;
4311;SDS011;77323;49.086;9.284;2024-03-17T05:47:14;3.60;;;1.30;;
4311;SDS011;77323;49.086;9.284;2024-03-17T05:48:14;2.73;;;2.47;;
4311;SDS011;77323;49.086;9.284;2024-03-17T05:49:16;2.75;;;1.73;;
4311;SDS011;77323;49.086;9.284;2024-03-17T05:50:16;1.43;;;1.33;;
4311;SDS011;77323;49.086;9.284;2024-03-17T05:51:18;1.60;;;1.50;;
4311;SDS011;77323;49.086;9.284;2024-03-17T05:52:19;1.37;;;1.30;;
4311;SDS011;77323;49.086;9.284;2024-03-17T05:53:22;4.03;;;1.65;;
4311;SDS011;77323;49.086;9.284;2024-03-17T05:54:24;2.03;;;1.92;;
4311;SDS011;77323;49.086;9.284;2024-03-17T05:55:25;1.75;;;1.63;;
4311;SDS011;77323;49.086;9.284;2024-03-17T05:56:26;1.47;;;1.37;;
4311;SDS011;77323;49.086;9.284;2024-03-17T05:57:28;1.48;;;1.48;;
4311;SDS011;77323;49.086;9.284;2024-03-17T05:58:28;1.23;;;1.23;;
4311;SDS011;77323;49.086;9.284;2024-03-17T05:59:30;1.42;;;1.42;;
4311;SDS011;77323;49.086;9.284;2024-03-17T06:00:31;1.57;;;1.47;;
4311;SDS011;77323;49.086;9.284;2024-03-17T06:01:32;1.60;;;1.60;;
4311;SDS011;77323;49.086;9.284;2024-03-17T06:02:33;1.37;;;1.37;;
4311;SDS011;77323;49.086;9.284;2024-03-17T06:03:35;1.75;;;1.67;;
4311;SDS011;77323;49.086;9.284;2024-03-17T06:04:36;1.55;;;1.45;;
4311;SDS011;77323;49.086;9.284;2024-03-17T06:05:39;2.75;;;1.92;;
4311;SDS011;77323;49.086;9.284;2024-03-17T06:06:40;1.40;;;1.35;;
4311;SDS011;77323;49.086;9.284;2024-03-17T06:07:42;2.10;;;2.00;;
4311;SDS011;77323;49.086;9.284;2024-03-17T06:08:42;4.80;;;2.53;;
4311;SDS011;77323;49.086;9.284;2024-03-17T06:09:44;1.90;;;1.80;;
4311;SDS011;77323;49.086;9.284;2024-03-17T06:10:47;2.63;;;2.53;;
4311;SDS011;77323;49.086;9.284;2024-03-17T06:11:48;2.92;;;2.10;;
4311;SDS011;77323;49.086;9.284;2024-03-17T06:12:50;3.83;;;2.22;;
4311;SDS011;77323;49.086;9.284;2024-03-17T06:13:51;2.10;;;1.90;;
4311;SDS011;77323;49.086;9.284;2024-03-17T06:14:52;4.15;;;1.98;;
4311;SDS011;77323;49.086;9.284;2024-03-17T06:15:53;1.50;;;1.50;;
4311;SDS011;77323;49.086;9.284;2024-03-17T06:16:54;2.92;;;2.15;;
4311;SDS011;77323;49.086;9.284;2024-03-17T06:17:55;1.27;;;1.17;;
4311;SDS011;77323;49.086;9.284;2024-03-17T06:18:56;3.57;;;2.40;;
4311;SDS011;77323;49.086;9.284;2024-03-17T06:19:58;1.67;;;1.58;;